sensor_id;sensor_type;location;lat;lon;timestamp;P1;durP1;ratioP1;P2;durP2;ratioP2
34142;SDS011;20419;10.658;106.724;2023-04-10T00:00:32;10.02;;;9.02;;
34142;SDS011;20419;10.658;106.724;2023-04-10T00:03:00;10.73;;;9.63;;
34142;SDS011;20419;10.658;106.724;2023-04-10T00:05:27;10.38;;;8.90;;
34142;SDS011;20419;10.658;106.724;2023-04-10T00:07:54;10.40;;;9.27;;
34142;SDS011;20419;10.658;106.724;2023-04-10T00:10:21;10.80;;;9.70;;
34142;SDS011;20419;10.658;106.724;2023-04-10T00:12:50;10.57;;;9.48;;
34142;SDS011;20419;10.658;106.724;2023-04-10T00:15:18;10.75;;;9.00;;
34142;SDS011;20419;10.658;106.724;2023-04-10T00:17:45;10.30;;;8.57;;
34142;SDS011;20419;10.658;106.724;2023-04-10T00:20:12;11.88;;;9.60;;
34142;SDS011;20419;10.658;106.724;2023-04-10T00:22:39;9.75;;;8.50;;
34142;SDS011;20419;10.658;106.724;2023-04-10T00:25:07;9.75;;;8.50;;
34142;SDS011;20419;10.658;106.724;2023-04-10T00:27:34;9.05;;;8.15;;
34142;SDS011;20419;10.658;106.724;2023-04-10T00:30:00;9.70;;;8.70;;
34142;SDS011;20419;10.658;106.724;2023-04-10T00:32:27;10.50;;;9.40;;
34142;SDS011;20419;10.658;106.724;2023-04-10T00:34:54;11.23;;;9.57;;
34142;SDS011;20419;10.658;106.724;2023-04-10T00:37:21;10.55;;;9.45;;
34142;SDS011;20419;10.658;106.724;2023-04-10T00:39:48;10.82;;;8.52;;
34142;SDS011;20419;10.658;106.724;2023-04-10T00:42:14;10.95;;;9.30;;
34142;SDS011;20419;10.658;106.724;2023-04-10T00:44:41;11.85;;;9.43;;
34142;SDS011;20419;10.658;106.724;2023-04-10T00:47:08;10.93;;;9.82;;
34142;SDS011;20419;10.658;106.724;2023-04-10T00:49:35;11.82;;;9.70;;
34142;SDS011;20419;10.658;106.724;2023-04-10T00:52:02;11.15;;;9.65;;
34142;SDS011;20419;10.658;106.724;2023-04-10T00:54:29;11.90;;;9.77;;
34142;SDS011;20419;10.658;106.724;2023-04-10T00:56:57;10.13;;;8.77;;
34142;SDS011;20419;10.658;106.724;2023-04-10T00:59:24;12.20;;;9.73;;
34142;SDS011;20419;10.658;106.724;2023-04-10T01:01:51;12.23;;;9.07;;
34142;SDS011;20419;10.658;106.724;2023-04-10T01:04:18;11.07;;;9.75;;
34142;SDS011;20419;10.658;106.724;2023-04-10T01:06:57;9.68;;;8.57;;
34142;SDS011;20419;10.658;106.724;2023-04-10T01:09:34;10.60;;;9.07;;
34142;SDS011;20419;10.658;106.724;2023-04-10T01:14:52;11.43;;;10.10;;
34142;SDS011;20419;10.658;106.724;2023-04-10T01:20:04;11.73;;;9.65;;
34142;SDS011;20419;10.658;106.724;2023-04-10T01:22:44;11.55;;;9.80;;
34142;SDS011;20419;10.658;106.724;2023-04-10T01:28:03;11.13;;;9.13;;
34142;SDS011;20419;10.658;106.724;2023-04-10T01:30:31;11.32;;;10.07;;
34142;SDS011;20419;10.658;106.724;2023-04-10T01:33:00;11.32;;;9.52;;
34142;SDS011;20419;10.658;106.724;2023-04-10T01:35:28;11.70;;;9.82;;
34142;SDS011;20419;10.658;106.724;2023-04-10T01:37:56;11.20;;;9.82;;
34142;SDS011;20419;10.658;106.724;2023-04-10T01:40:23;12.65;;;9.85;;
34142;SDS011;20419;10.658;106.724;2023-04-10T01:42:52;11.35;;;9.65;;
34142;SDS011;20419;10.658;106.724;2023-04-10T01:45:22;11.10;;;10.00;;
34142;SDS011;20419;10.658;106.724;2023-04-10T01:47:52;11.93;;;9.80;;
34142;SDS011;20419;10.658;106.724;2023-04-10T01:50:19;12.15;;;10.18;;
34142;SDS011;20419;10.658;106.724;2023-04-10T01:52:49;13.43;;;10.02;;
34142;SDS011;20419;10.658;106.724;2023-04-10T01:55:17;13.13;;;10.20;;
34142;SDS011;20419;10.658;106.724;2023-04-10T01:57:45;11.70;;;10.17;;
34142;SDS011;20419;10.658;106.724;2023-04-10T02:00:15;13.32;;;10.93;;
34142;SDS011;20419;10.658;106.724;2023-04-10T02:02:42;11.20;;;9.95;;
34142;SDS011;20419;10.658;106.724;2023-04-10T02:05:10;13.63;;;10.30;;
34142;SDS011;20419;10.658;106.724;2023-04-10T02:07:43;12.23;;;10.93;;
34142;SDS011;20419;10.658;106.724;2023-04-10T02:12:49;12.98;;;10.60;;
34142;SDS011;20419;10.658;106.724;2023-04-10T02:15:20;12.32;;;10.32;;
34142;SDS011;20419;10.658;106.724;2023-04-10T02:17:48;11.38;;;9.88;;
34142;SDS011;20419;10.658;106.724;2023-04-10T02:20:16;12.60;;;10.67;;
34142;SDS011;20419;10.658;106.724;2023-04-10T02:22:43;13.70;;;11.15;;
34142;SDS011;20419;10.658;106.724;2023-04-10T02:25:10;14.45;;;10.63;;
34142;SDS011;20419;10.658;106.724;2023-04-10T02:27:37;11.98;;;10.75;;
34142;SDS011;20419;10.658;106.724;2023-04-10T02:30:04;12.35;;;10.88;;
34142;SDS011;20419;10.658;106.724;2023-04-10T02:32:31;11.95;;;10.38;;
34142;SDS011;20419;10.658;106.724;2023-04-10T02:34:58;12.75;;;10.05;;
34142;SDS011;20419;10.658;106.724;2023-04-10T02:37:26;13.70;;;11.07;;
34142;SDS011;20419;10.658;106.724;2023-04-10T02:39:53;13.27;;;10.65;;
34142;SDS011;20419;10.658;106.724;2023-04-10T02:42:20;12.13;;;10.82;;
34142;SDS011;20419;10.658;106.724;2023-04-10T02:44:55;12.18;;;10.63;;
34142;SDS011;20419;10.658;106.724;2023-04-10T02:47:22;12.98;;;10.30;;
34142;SDS011;20419;10.658;106.724;2023-04-10T02:49:49;13.13;;;10.70;;
34142;SDS011;20419;10.658;106.724;2023-04-10T02:52:15;12.88;;;11.43;;
34142;SDS011;20419;10.658;106.724;2023-04-10T02:54:43;12.18;;;9.95;;
34142;SDS011;20419;10.658;106.724;2023-04-10T02:57:09;11.75;;;10.35;;
34142;SDS011;20419;10.658;106.724;2023-04-10T02:59:36;12.02;;;10.63;;
34142;SDS011;20419;10.658;106.724;2023-04-10T03:02:17;11.07;;;9.93;;
34142;SDS011;20419;10.658;106.724;2023-04-10T03:04:44;12.10;;;10.80;;
34142;SDS011;20419;10.658;106.724;2023-04-10T03:07:11;14.73;;;10.75;;
34142;SDS011;20419;10.658;106.724;2023-04-10T03:09:38;11.38;;;9.65;;
34142;SDS011;20419;10.658;106.724;2023-04-10T03:12:05;12.80;;;10.35;;
34142;SDS011;20419;10.658;106.724;2023-04-10T03:14:31;10.73;;;9.60;;
34142;SDS011;20419;10.658;106.724;2023-04-10T03:16:58;12.23;;;10.32;;
34142;SDS011;20419;10.658;106.724;2023-04-10T03:19:25;12.25;;;9.82;;
34142;SDS011;20419;10.658;106.724;2023-04-10T03:21:52;12.32;;;11.02;;
34142;SDS011;20419;10.658;106.724;2023-04-10T03:24:19;12.18;;;10.48;;
34142;SDS011;20419;10.658;106.724;2023-04-10T03:26:46;11.68;;;10.48;;
34142;SDS011;20419;10.658;106.724;2023-04-10T03:29:12;10.75;;;9.65;;
34142;SDS011;20419;10.658;106.724;2023-04-10T03:31:43;11.15;;;9.95;;
34142;SDS011;20419;10.658;106.724;2023-04-10T03:34:10;11.43;;;10.10;;
34142;SDS011;20419;10.658;106.724;2023-04-10T03:36:37;10.50;;;9.32;;
34142;SDS011;20419;10.658;106.724;2023-04-10T03:39:03;11.95;;;10.75;;
34142;SDS011;20419;10.658;106.724;2023-04-10T03:41:31;10.50;;;9.40;;
34142;SDS011;20419;10.658;106.724;2023-04-10T03:43:57;12.15;;;10.95;;
34142;SDS011;20419;10.658;106.724;2023-04-10T03:46:27;11.65;;;10.45;;
34142;SDS011;20419;10.658;106.724;2023-04-10T03:48:54;11.55;;;9.77;;
34142;SDS011;20419;10.658;106.724;2023-04-10T03:51:20;12.20;;;10.23;;
34142;SDS011;20419;10.658;106.724;2023-04-10T03:53:49;11.53;;;10.10;;
34142;SDS011;20419;10.658;106.724;2023-04-10T03:56:15;10.23;;;9.20;;
34142;SDS011;20419;10.658;106.724;2023-04-10T03:58:42;11.68;;;10.43;;
34142;SDS011;20419;10.658;106.724;2023-04-10T04:01:09;10.80;;;9.50;;
34142;SDS011;20419;10.658;106.724;2023-04-10T04:03:36;11.18;;;10.02;;
34142;SDS011;20419;10.658;106.724;2023-04-10T04:06:02;10.88;;;9.73;;
34142;SDS011;20419;10.658;106.724;2023-04-10T04:08:29;11.10;;;9.82;;
34142;SDS011;20419;10.658;106.724;2023-04-10T04:10:56;10.93;;;9.77;;
34142;SDS011;20419;10.658;106.724;2023-04-10T04:13:23;11.32;;;9.90;;
34142;SDS011;20419;10.658;106.724;2023-04-10T04:15:49;11.43;;;10.32;;
34142;SDS011;20419;10.658;106.724;2023-04-10T04:18:16;11.70;;;10.05;;
34142;SDS011;20419;10.658;106.724;2023-04-10T04:20:43;11.10;;;9.68;;
34142;SDS011;20419;10.658;106.724;2023-04-10T04:23:10;13.10;;;9.98;;
34142;SDS011;20419;10.658;106.724;2023-04-10T04:25:37;11.70;;;10.20;;
34142;SDS011;20419;10.658;106.724;2023-04-10T04:28:04;11.40;;;10.30;;
34142;SDS011;20419;10.658;106.724;2023-04-10T04:30:31;12.57;;;10.10;;
34142;SDS011;20419;10.658;106.724;2023-04-10T04:32:58;10.95;;;9.85;;
34142;SDS011;20419;10.658;106.724;2023-04-10T04:35:24;10.70;;;9.60;;
34142;SDS011;20419;10.658;106.724;2023-04-10T04:37:51;11.25;;;10.05;;
34142;SDS011;20419;10.658;106.724;2023-04-10T04:40:18;11.65;;;10.40;;
34142;SDS011;20419;10.658;106.724;2023-04-10T04:42:45;11.20;;;10.00;;
34142;SDS011;20419;10.658;106.724;2023-04-10T04:45:12;11.98;;;10.65;;
34142;SDS011;20419;10.658;106.724;2023-04-10T04:47:38;11.18;;;9.63;;
34142;SDS011;20419;10.658;106.724;2023-04-10T04:50:05;10.38;;;9.27;;
34142;SDS011;20419;10.658;106.724;2023-04-10T04:52:32;11.27;;;10.13;;
34142;SDS011;20419;10.658;106.724;2023-04-10T04:54:59;11.57;;;10.38;;
34142;SDS011;20419;10.658;106.724;2023-04-10T04:57:26;11.55;;;10.32;;
34142;SDS011;20419;10.658;106.724;2023-04-10T04:59:53;11.70;;;10.50;;
34142;SDS011;20419;10.658;106.724;2023-04-10T05:02:20;10.98;;;9.93;;
34142;SDS011;20419;10.658;106.724;2023-04-10T05:04:47;11.82;;;10.60;;
34142;SDS011;20419;10.658;106.724;2023-04-10T05:07:14;12.00;;;10.80;;
34142;SDS011;20419;10.658;106.724;2023-04-10T05:09:40;12.10;;;10.80;;
34142;SDS011;20419;10.658;106.724;2023-04-10T05:12:07;11.70;;;10.52;;
34142;SDS011;20419;10.658;106.724;2023-04-10T05:14:34;11.00;;;9.85;;
34142;SDS011;20419;10.658;106.724;2023-04-10T05:17:00;11.85;;;10.65;;
34142;SDS011;20419;10.658;106.724;2023-04-10T05:19:27;12.57;;;10.55;;
34142;SDS011;20419;10.658;106.724;2023-04-10T05:21:54;11.43;;;10.23;;
34142;SDS011;20419;10.658;106.724;2023-04-10T05:24:21;12.77;;;11.57;;
34142;SDS011;20419;10.658;106.724;2023-04-10T05:26:47;11.48;;;10.27;;
34142;SDS011;20419;10.658;106.724;2023-04-10T05:29:14;11.52;;;10.35;;
34142;SDS011;20419;10.658;106.724;2023-04-10T05:31:41;12.65;;;11.35;;
34142;SDS011;20419;10.658;106.724;2023-04-10T05:34:08;11.68;;;10.48;;
34142;SDS011;20419;10.658;106.724;2023-04-10T05:36:35;12.70;;;11.40;;
34142;SDS011;20419;10.658;106.724;2023-04-10T05:39:01;13.02;;;11.60;;
34142;SDS011;20419;10.658;106.724;2023-04-10T05:41:28;11.93;;;10.73;;
34142;SDS011;20419;10.658;106.724;2023-04-10T05:43:55;12.80;;;11.50;;
34142;SDS011;20419;10.658;106.724;2023-04-10T05:46:22;12.70;;;11.43;;
34142;SDS011;20419;10.658;106.724;2023-04-10T05:48:48;12.63;;;11.43;;
34142;SDS011;20419;10.658;106.724;2023-04-10T05:51:15;12.65;;;11.35;;
34142;SDS011;20419;10.658;106.724;2023-04-10T05:53:42;12.50;;;11.30;;
34142;SDS011;20419;10.658;106.724;2023-04-10T05:56:09;11.93;;;10.73;;
34142;SDS011;20419;10.658;106.724;2023-04-10T05:58:35;12.27;;;11.05;;
34142;SDS011;20419;10.658;106.724;2023-04-10T06:01:02;13.30;;;12.00;;
34142;SDS011;20419;10.658;106.724;2023-04-10T06:03:29;14.15;;;12.65;;
34142;SDS011;20419;10.658;106.724;2023-04-10T06:05:56;13.05;;;11.75;;
34142;SDS011;20419;10.658;106.724;2023-04-10T06:08:22;12.93;;;11.30;;
34142;SDS011;20419;10.658;106.724;2023-04-10T06:10:49;12.48;;;11.27;;
34142;SDS011;20419;10.658;106.724;2023-04-10T06:13:16;13.82;;;12.35;;
34142;SDS011;20419;10.658;106.724;2023-04-10T06:15:43;14.43;;;12.93;;
34142;SDS011;20419;10.658;106.724;2023-04-10T06:18:10;12.43;;;11.13;;
34142;SDS011;20419;10.658;106.724;2023-04-10T06:20:37;13.07;;;11.82;;
34142;SDS011;20419;10.658;106.724;2023-04-10T06:23:03;14.23;;;12.75;;
34142;SDS011;20419;10.658;106.724;2023-04-10T06:25:30;13.70;;;12.23;;
34142;SDS011;20419;10.658;106.724;2023-04-10T06:27:57;12.93;;;11.63;;
34142;SDS011;20419;10.658;106.724;2023-04-10T06:30:24;13.30;;;12.00;;
34142;SDS011;20419;10.658;106.724;2023-04-10T06:32:51;13.23;;;11.93;;
34142;SDS011;20419;10.658;106.724;2023-04-10T06:35:17;13.50;;;12.15;;
34142;SDS011;20419;10.658;106.724;2023-04-10T06:37:45;13.40;;;12.03;;
34142;SDS011;20419;10.658;106.724;2023-04-10T06:40:12;11.82;;;10.63;;
34142;SDS011;20419;10.658;106.724;2023-04-10T06:42:40;12.93;;;11.55;;
34142;SDS011;20419;10.658;106.724;2023-04-10T06:45:07;13.27;;;11.98;;
34142;SDS011;20419;10.658;106.724;2023-04-10T06:47:34;13.93;;;12.60;;
34142;SDS011;20419;10.658;106.724;2023-04-10T06:50:01;13.68;;;12.27;;
34142;SDS011;20419;10.658;106.724;2023-04-10T06:52:27;13.25;;;11.88;;
34142;SDS011;20419;10.658;106.724;2023-04-10T06:54:54;13.15;;;11.88;;
34142;SDS011;20419;10.658;106.724;2023-04-10T06:57:21;13.35;;;12.05;;
34142;SDS011;20419;10.658;106.724;2023-04-10T06:59:48;13.73;;;12.32;;
34142;SDS011;20419;10.658;106.724;2023-04-10T07:02:15;12.70;;;11.40;;
34142;SDS011;20419;10.658;106.724;2023-04-10T07:04:41;13.30;;;12.00;;
34142;SDS011;20419;10.658;106.724;2023-04-10T07:07:08;13.93;;;12.35;;
34142;SDS011;20419;10.658;106.724;2023-04-10T07:09:36;13.13;;;11.88;;
34142;SDS011;20419;10.658;106.724;2023-04-10T07:12:03;13.63;;;12.25;;
34142;SDS011;20419;10.658;106.724;2023-04-10T07:14:31;14.30;;;12.90;;
34142;SDS011;20419;10.658;106.724;2023-04-10T07:19:25;14.02;;;12.60;;
34142;SDS011;20419;10.658;106.724;2023-04-10T07:21:52;14.40;;;12.80;;
34142;SDS011;20419;10.658;106.724;2023-04-10T07:24:19;14.02;;;12.60;;
34142;SDS011;20419;10.658;106.724;2023-04-10T07:26:45;14.93;;;13.52;;
34142;SDS011;20419;10.658;106.724;2023-04-10T07:29:12;14.25;;;12.73;;
34142;SDS011;20419;10.658;106.724;2023-04-10T07:31:40;14.70;;;13.20;;
34142;SDS011;20419;10.658;106.724;2023-04-10T07:34:06;14.68;;;13.18;;
34142;SDS011;20419;10.658;106.724;2023-04-10T07:36:33;13.82;;;12.43;;
34142;SDS011;20419;10.658;106.724;2023-04-10T07:39:00;14.82;;;13.32;;
34142;SDS011;20419;10.658;106.724;2023-04-10T07:41:27;14.43;;;13.02;;
34142;SDS011;20419;10.658;106.724;2023-04-10T07:43:54;15.27;;;13.77;;
34142;SDS011;20419;10.658;106.724;2023-04-10T07:46:21;14.40;;;13.00;;
34142;SDS011;20419;10.658;106.724;2023-04-10T07:48:47;14.90;;;13.40;;
34142;SDS011;20419;10.658;106.724;2023-04-10T07:51:15;14.65;;;13.23;;
34142;SDS011;20419;10.658;106.724;2023-04-10T07:53:41;15.75;;;14.10;;
34142;SDS011;20419;10.658;106.724;2023-04-10T07:56:13;16.42;;;14.77;;
34142;SDS011;20419;10.658;106.724;2023-04-10T07:58:41;14.95;;;13.50;;
34142;SDS011;20419;10.658;106.724;2023-04-10T08:01:08;14.43;;;12.93;;
34142;SDS011;20419;10.658;106.724;2023-04-10T08:03:41;15.55;;;13.95;;
34142;SDS011;20419;10.658;106.724;2023-04-10T08:06:08;14.75;;;13.32;;
34142;SDS011;20419;10.658;106.724;2023-04-10T08:08:35;15.63;;;14.13;;
34142;SDS011;20419;10.658;106.724;2023-04-10T08:11:03;15.30;;;13.68;;
34142;SDS011;20419;10.658;106.724;2023-04-10T08:13:30;14.75;;;13.35;;
34142;SDS011;20419;10.658;106.724;2023-04-10T08:15:57;16.67;;;15.00;;
34142;SDS011;20419;10.658;106.724;2023-04-10T08:18:24;14.88;;;13.48;;
34142;SDS011;20419;10.658;106.724;2023-04-10T08:20:51;15.95;;;14.35;;
34142;SDS011;20419;10.658;106.724;2023-04-10T08:23:17;16.42;;;14.88;;
34142;SDS011;20419;10.658;106.724;2023-04-10T08:25:44;17.00;;;15.40;;
34142;SDS011;20419;10.658;106.724;2023-04-10T08:28:11;15.25;;;13.75;;
34142;SDS011;20419;10.658;106.724;2023-04-10T08:30:38;16.02;;;14.48;;
34142;SDS011;20419;10.658;106.724;2023-04-10T08:33:04;15.68;;;14.18;;
34142;SDS011;20419;10.658;106.724;2023-04-10T08:35:31;15.65;;;14.15;;
34142;SDS011;20419;10.658;106.724;2023-04-10T08:37:58;16.67;;;15.07;;
34142;SDS011;20419;10.658;106.724;2023-04-10T08:40:25;17.08;;;15.38;;
34142;SDS011;20419;10.658;106.724;2023-04-10T08:42:51;16.73;;;15.05;;
34142;SDS011;20419;10.658;106.724;2023-04-10T08:45:18;16.45;;;14.77;;
34142;SDS011;20419;10.658;106.724;2023-04-10T08:47:45;16.60;;;15.00;;
34142;SDS011;20419;10.658;106.724;2023-04-10T08:50:13;16.65;;;15.15;;
34142;SDS011;20419;10.658;106.724;2023-04-10T08:52:42;17.70;;;16.00;;
34142;SDS011;20419;10.658;106.724;2023-04-10T08:55:10;15.88;;;14.18;;
34142;SDS011;20419;10.658;106.724;2023-04-10T08:57:39;15.88;;;14.32;;
34142;SDS011;20419;10.658;106.724;2023-04-10T09:00:06;15.65;;;14.05;;
34142;SDS011;20419;10.658;106.724;2023-04-10T09:02:33;15.02;;;13.52;;
34142;SDS011;20419;10.658;106.724;2023-04-10T09:05:00;15.38;;;13.88;;
34142;SDS011;20419;10.658;106.724;2023-04-10T09:07:28;16.40;;;14.75;;
34142;SDS011;20419;10.658;106.724;2023-04-10T09:09:55;15.50;;;13.90;;
34142;SDS011;20419;10.658;106.724;2023-04-10T09:12:22;15.88;;;14.27;;
34142;SDS011;20419;10.658;106.724;2023-04-10T09:14:48;15.95;;;14.30;;
34142;SDS011;20419;10.658;106.724;2023-04-10T09:17:21;16.92;;;15.32;;
34142;SDS011;20419;10.658;106.724;2023-04-10T09:19:52;16.63;;;14.93;;
34142;SDS011;20419;10.658;106.724;2023-04-10T09:22:31;16.75;;;15.05;;
34142;SDS011;20419;10.658;106.724;2023-04-10T09:24:59;16.42;;;14.73;;
34142;SDS011;20419;10.658;106.724;2023-04-10T09:27:33;16.85;;;15.20;;
34142;SDS011;20419;10.658;106.724;2023-04-10T09:30:00;17.20;;;15.40;;
34142;SDS011;20419;10.658;106.724;2023-04-10T09:32:40;16.58;;;14.88;;
34142;SDS011;20419;10.658;106.724;2023-04-10T09:35:08;15.57;;;14.07;;
34142;SDS011;20419;10.658;106.724;2023-04-10T09:37:35;16.23;;;14.63;;
34142;SDS011;20419;10.658;106.724;2023-04-10T09:40:02;15.68;;;14.18;;
34142;SDS011;20419;10.658;106.724;2023-04-10T09:42:31;16.33;;;14.73;;
34142;SDS011;20419;10.658;106.724;2023-04-10T09:44:58;16.08;;;14.50;;
34142;SDS011;20419;10.658;106.724;2023-04-10T09:47:26;14.90;;;13.50;;
34142;SDS011;20419;10.658;106.724;2023-04-10T09:49:53;16.38;;;14.68;;
34142;SDS011;20419;10.658;106.724;2023-04-10T09:52:28;15.07;;;13.50;;
34142;SDS011;20419;10.658;106.724;2023-04-10T09:54:56;16.35;;;14.80;;
34142;SDS011;20419;10.658;106.724;2023-04-10T09:57:24;16.93;;;15.23;;
34142;SDS011;20419;10.658;106.724;2023-04-10T09:59:52;13.82;;;12.52;;
34142;SDS011;20419;10.658;106.724;2023-04-10T10:02:19;17.38;;;15.57;;
34142;SDS011;20419;10.658;106.724;2023-04-10T10:04:46;15.65;;;14.18;;
34142;SDS011;20419;10.658;106.724;2023-04-10T10:07:14;15.95;;;14.35;;
34142;SDS011;20419;10.658;106.724;2023-04-10T10:09:42;16.38;;;14.75;;
34142;SDS011;20419;10.658;106.724;2023-04-10T10:12:10;14.57;;;13.10;;
34142;SDS011;20419;10.658;106.724;2023-04-10T10:17:23;15.25;;;13.68;;
34142;SDS011;20419;10.658;106.724;2023-04-10T10:22:17;15.27;;;13.77;;
34142;SDS011;20419;10.658;106.724;2023-04-10T10:24:45;15.88;;;14.27;;
34142;SDS011;20419;10.658;106.724;2023-04-10T10:27:13;15.07;;;13.57;;
34142;SDS011;20419;10.658;106.724;2023-04-10T10:29:40;15.73;;;14.23;;
34142;SDS011;20419;10.658;106.724;2023-04-10T10:32:09;16.38;;;14.77;;
34142;SDS011;20419;10.658;106.724;2023-04-10T10:34:36;15.88;;;14.27;;
34142;SDS011;20419;10.658;106.724;2023-04-10T10:37:03;15.30;;;13.90;;
34142;SDS011;20419;10.658;106.724;2023-04-10T10:39:41;15.30;;;13.80;;
34142;SDS011;20419;10.658;106.724;2023-04-10T10:44:48;15.45;;;13.95;;
34142;SDS011;20419;10.658;106.724;2023-04-10T10:48:01;15.05;;;13.55;;
34142;SDS011;20419;10.658;106.724;2023-04-10T10:50:03;14.38;;;13.00;;
34142;SDS011;20419;10.658;106.724;2023-04-10T10:52:51;15.20;;;13.80;;
34142;SDS011;20419;10.658;106.724;2023-04-10T10:57:51;15.35;;;13.85;;
34142;SDS011;20419;10.658;106.724;2023-04-10T11:00:18;14.73;;;13.30;;
34142;SDS011;20419;10.658;106.724;2023-04-10T11:03:30;13.98;;;12.57;;
34142;SDS011;20419;10.658;106.724;2023-04-10T11:05:48;14.32;;;12.98;;
34142;SDS011;20419;10.658;106.724;2023-04-10T11:11:10;14.98;;;13.48;;
34142;SDS011;20419;10.658;106.724;2023-04-10T11:14:24;15.60;;;13.95;;
34142;SDS011;20419;10.658;106.724;2023-04-10T11:19:08;14.77;;;13.35;;
34142;SDS011;20419;10.658;106.724;2023-04-10T11:22:20;15.35;;;13.75;;
34142;SDS011;20419;10.658;106.724;2023-04-10T11:24:29;15.27;;;13.75;;
34142;SDS011;20419;10.658;106.724;2023-04-10T11:26:56;14.68;;;13.27;;
34142;SDS011;20419;10.658;106.724;2023-04-10T11:32:02;14.52;;;13.23;;
34142;SDS011;20419;10.658;106.724;2023-04-10T11:34:30;15.50;;;13.90;;
34142;SDS011;20419;10.658;106.724;2023-04-10T11:36:58;14.90;;;13.40;;
34142;SDS011;20419;10.658;106.724;2023-04-10T11:39:28;15.30;;;13.63;;
34142;SDS011;20419;10.658;106.724;2023-04-10T11:41:55;14.73;;;13.32;;
34142;SDS011;20419;10.658;106.724;2023-04-10T11:46:52;15.60;;;14.02;;
34142;SDS011;20419;10.658;106.724;2023-04-10T11:49:20;14.82;;;13.23;;
34142;SDS011;20419;10.658;106.724;2023-04-10T11:51:48;14.07;;;12.77;;
34142;SDS011;20419;10.658;106.724;2023-04-10T11:54:15;15.07;;;13.57;;
34142;SDS011;20419;10.658;106.724;2023-04-10T11:57:24;14.13;;;12.82;;
34142;SDS011;20419;10.658;106.724;2023-04-10T11:59:34;14.77;;;13.38;;
34142;SDS011;20419;10.658;106.724;2023-04-10T12:02:07;15.27;;;13.77;;
34142;SDS011;20419;10.658;106.724;2023-04-10T12:04:34;14.65;;;13.27;;
34142;SDS011;20419;10.658;106.724;2023-04-10T12:07:01;14.77;;;13.35;;
34142;SDS011;20419;10.658;106.724;2023-04-10T12:09:28;15.75;;;14.20;;
34142;SDS011;20419;10.658;106.724;2023-04-10T12:11:57;14.40;;;13.00;;
34142;SDS011;20419;10.658;106.724;2023-04-10T12:14:34;15.48;;;13.77;;
34142;SDS011;20419;10.658;106.724;2023-04-10T12:17:01;14.60;;;13.20;;
34142;SDS011;20419;10.658;106.724;2023-04-10T12:19:28;15.05;;;13.57;;
34142;SDS011;20419;10.658;106.724;2023-04-10T12:21:56;15.15;;;13.65;;
34142;SDS011;20419;10.658;106.724;2023-04-10T12:27:15;14.23;;;12.85;;
34142;SDS011;20419;10.658;106.724;2023-04-10T12:29:43;14.45;;;12.95;;
34142;SDS011;20419;10.658;106.724;2023-04-10T12:32:10;14.40;;;12.90;;
34142;SDS011;20419;10.658;106.724;2023-04-10T12:34:37;15.52;;;13.93;;
34142;SDS011;20419;10.658;106.724;2023-04-10T12:37:04;14.18;;;12.70;;
34142;SDS011;20419;10.658;106.724;2023-04-10T12:39:30;14.52;;;13.13;;
34142;SDS011;20419;10.658;106.724;2023-04-10T12:42:13;15.73;;;14.13;;
34142;SDS011;20419;10.658;106.724;2023-04-10T12:44:56;13.98;;;12.57;;
34142;SDS011;20419;10.658;106.724;2023-04-10T12:47:24;14.73;;;13.32;;
34142;SDS011;20419;10.658;106.724;2023-04-10T12:52:30;14.45;;;13.05;;
34142;SDS011;20419;10.658;106.724;2023-04-10T12:55:07;15.48;;;13.77;;
34142;SDS011;20419;10.658;106.724;2023-04-10T12:57:35;15.02;;;13.45;;
34142;SDS011;20419;10.658;106.724;2023-04-10T13:00:03;15.75;;;14.25;;
34142;SDS011;20419;10.658;106.724;2023-04-10T13:02:30;14.23;;;12.82;;
34142;SDS011;20419;10.658;106.724;2023-04-10T13:04:58;14.27;;;12.88;;
34142;SDS011;20419;10.658;106.724;2023-04-10T13:07:25;14.45;;;12.95;;
34142;SDS011;20419;10.658;106.724;2023-04-10T13:09:51;13.98;;;12.57;;
34142;SDS011;20419;10.658;106.724;2023-04-10T13:12:18;15.15;;;13.65;;
34142;SDS011;20419;10.658;106.724;2023-04-10T13:14:45;13.80;;;12.50;;
34142;SDS011;20419;10.658;106.724;2023-04-10T13:17:12;14.63;;;13.15;;
34142;SDS011;20419;10.658;106.724;2023-04-10T13:19:38;14.82;;;13.38;;
34142;SDS011;20419;10.658;106.724;2023-04-10T13:22:05;13.82;;;12.43;;
34142;SDS011;20419;10.658;106.724;2023-04-10T13:24:32;15.13;;;12.95;;
34142;SDS011;20419;10.658;106.724;2023-04-10T13:29:27;13.93;;;12.52;;
34142;SDS011;20419;10.658;106.724;2023-04-10T13:31:54;15.13;;;13.52;;
34142;SDS011;20419;10.658;106.724;2023-04-10T13:34:21;14.18;;;12.68;;
34142;SDS011;20419;10.658;106.724;2023-04-10T13:36:48;15.13;;;13.70;;
34142;SDS011;20419;10.658;106.724;2023-04-10T13:39:15;14.68;;;13.18;;
34142;SDS011;20419;10.658;106.724;2023-04-10T13:41:43;14.88;;;13.40;;
34142;SDS011;20419;10.658;106.724;2023-04-10T13:44:10;15.88;;;12.73;;
34142;SDS011;20419;10.658;106.724;2023-04-10T13:46:37;14.43;;;12.93;;
34142;SDS011;20419;10.658;106.724;2023-04-10T13:49:03;15.20;;;13.60;;
34142;SDS011;20419;10.658;106.724;2023-04-10T13:51:30;14.38;;;12.95;;
34142;SDS011;20419;10.658;106.724;2023-04-10T13:53:58;14.57;;;13.15;;
34142;SDS011;20419;10.658;106.724;2023-04-10T13:56:28;14.35;;;12.82;;
34142;SDS011;20419;10.658;106.724;2023-04-10T13:58:57;15.43;;;13.82;;
34142;SDS011;20419;10.658;106.724;2023-04-10T14:01:26;15.43;;;13.88;;
34142;SDS011;20419;10.658;106.724;2023-04-10T14:03:57;14.30;;;12.88;;
34142;SDS011;20419;10.658;106.724;2023-04-10T14:06:24;13.98;;;12.48;;
34142;SDS011;20419;10.658;106.724;2023-04-10T14:08:51;14.60;;;13.05;;
34142;SDS011;20419;10.658;106.724;2023-04-10T14:11:18;15.23;;;13.73;;
34142;SDS011;20419;10.658;106.724;2023-04-10T14:13:46;14.52;;;13.02;;
34142;SDS011;20419;10.658;106.724;2023-04-10T14:16:13;13.57;;;12.23;;
34142;SDS011;20419;10.658;106.724;2023-04-10T14:18:40;14.25;;;12.75;;
34142;SDS011;20419;10.658;106.724;2023-04-10T14:21:06;15.82;;;14.18;;
34142;SDS011;20419;10.658;106.724;2023-04-10T14:23:33;14.82;;;13.45;;
34142;SDS011;20419;10.658;106.724;2023-04-10T14:26:00;14.68;;;13.13;;
34142;SDS011;20419;10.658;106.724;2023-04-10T14:28:27;14.13;;;12.70;;
34142;SDS011;20419;10.658;106.724;2023-04-10T14:30:55;14.63;;;12.48;;
34142;SDS011;20419;10.658;106.724;2023-04-10T14:33:22;13.40;;;12.02;;
34142;SDS011;20419;10.658;106.724;2023-04-10T14:35:49;15.00;;;13.13;;
34142;SDS011;20419;10.658;106.724;2023-04-10T14:38:16;13.55;;;12.15;;
34142;SDS011;20419;10.658;106.724;2023-04-10T14:40:43;14.32;;;12.88;;
34142;SDS011;20419;10.658;106.724;2023-04-10T14:43:14;16.02;;;13.80;;
34142;SDS011;20419;10.658;106.724;2023-04-10T14:45:41;14.23;;;12.82;;